sensor_id;sensor_type;location;lat;lon;timestamp;pressure;altitude;pressure_sealevel;temperature;humidity
11985;BME280;6052;53.246;10.368;2023-03-29T00:00:46;101395.06;;;7.48;83.96
11985;BME280;6052;53.246;10.368;2023-03-29T00:03:16;101395.53;;;7.58;83.71
11985;BME280;6052;53.246;10.368;2023-03-29T00:05:46;101393.47;;;7.54;83.87
11985;BME280;6052;53.246;10.368;2023-03-29T00:08:15;101388.53;;;7.57;83.94
11985;BME280;6052;53.246;10.368;2023-03-29T00:10:48;101378.06;;;7.56;84.20
11985;BME280;6052;53.246;10.368;2023-03-29T00:13:17;101375.75;;;7.46;84.54
11985;BME280;6052;53.246;10.368;2023-03-29T00:15:49;101373.06;;;7.46;84.01
11985;BME280;6052;53.246;10.368;2023-03-29T00:18:19;101368.56;;;7.47;83.84
11985;BME280;6052;53.246;10.368;2023-03-29T00:20:53;101365.94;;;7.60;83.89
11985;BME280;6052;53.246;10.368;2023-03-29T00:23:23;101361.22;;;7.62;83.56
11985;BME280;6052;53.246;10.368;2023-03-29T00:25:53;101356.06;;;7.54;83.80
11985;BME280;6052;53.246;10.368;2023-03-29T00:28:23;101356.72;;;7.62;83.78
11985;BME280;6052;53.246;10.368;2023-03-29T00:31:03;101345.78;;;7.51;83.55
11985;BME280;6052;53.246;10.368;2023-03-29T00:33:33;101341.03;;;7.53;83.36
11985;BME280;6052;53.246;10.368;2023-03-29T00:36:03;101340.59;;;7.43;83.21
11985;BME280;6052;53.246;10.368;2023-03-29T00:38:33;101336.31;;;7.48;83.11
11985;BME280;6052;53.246;10.368;2023-03-29T00:41:04;101335.09;;;7.51;83.44
11985;BME280;6052;53.246;10.368;2023-03-29T00:43:52;101327.25;;;7.43;83.18
11985;BME280;6052;53.246;10.368;2023-03-29T00:46:25;101332.59;;;7.43;83.39
11985;BME280;6052;53.246;10.368;2023-03-29T00:48:57;101332.59;;;7.43;83.71
11985;BME280;6052;53.246;10.368;2023-03-29T00:51:32;101324.78;;;7.41;84.07
11985;BME280;6052;53.246;10.368;2023-03-29T00:54:05;101316.13;;;7.33;84.30
11985;BME280;6052;53.246;10.368;2023-03-29T00:56:42;101309.16;;;7.32;84.16
11985;BME280;6052;53.246;10.368;2023-03-29T00:59:15;101314.06;;;7.28;84.03
11985;BME280;6052;53.246;10.368;2023-03-29T01:01:51;101314.91;;;7.35;83.78
11985;BME280;6052;53.246;10.368;2023-03-29T01:04:24;101313.47;;;7.33;83.78
11985;BME280;6052;53.246;10.368;2023-03-29T01:06:59;101308.53;;;7.30;83.81
11985;BME280;6052;53.246;10.368;2023-03-29T01:09:34;101307.09;;;7.34;83.71
11985;BME280;6052;53.246;10.368;2023-03-29T01:12:07;101297.22;;;7.28;83.65
11985;BME280;6052;53.246;10.368;2023-03-29T01:14:42;101298.66;;;7.30;83.76
11985;BME280;6052;53.246;10.368;2023-03-29T01:17:16;101285.94;;;7.26;83.28
11985;BME280;6052;53.246;10.368;2023-03-29T01:19:51;101276.88;;;7.27;83.01
11985;BME280;6052;53.246;10.368;2023-03-29T01:22:30;101268.88;;;7.27;83.10
11985;BME280;6052;53.246;10.368;2023-03-29T01:25:10;101264.78;;;7.31;82.97
11985;BME280;6052;53.246;10.368;2023-03-29T01:27:52;101262.72;;;7.26;82.86
11985;BME280;6052;53.246;10.368;2023-03-29T01:30:27;101255.72;;;7.25;83.40
11985;BME280;6052;53.246;10.368;2023-03-29T01:33:01;101248.13;;;7.22;83.10
11985;BME280;6052;53.246;10.368;2023-03-29T01:35:36;101244.44;;;7.23;83.61
11985;BME280;6052;53.246;10.368;2023-03-29T01:38:12;101244.84;;;7.20;83.59
11985;BME280;6052;53.246;10.368;2023-03-29T01:40:43;101238.25;;;7.16;83.46
11985;BME280;6052;53.246;10.368;2023-03-29T01:43:23;101241.16;;;7.15;83.60
11985;BME280;6052;53.246;10.368;2023-03-29T01:46:00;101237.84;;;7.13;83.41
11985;BME280;6052;53.246;10.368;2023-03-29T01:48:36;101240.09;;;7.16;83.72
11985;BME280;6052;53.246;10.368;2023-03-29T01:51:13;101234.78;;;7.16;83.62
11985;BME280;6052;53.246;10.368;2023-03-29T01:53:46;101234.97;;;7.14;83.98
11985;BME280;6052;53.246;10.368;2023-03-29T01:56:20;101226.53;;;7.11;84.17
11985;BME280;6052;53.246;10.368;2023-03-29T01:58:56;101219.56;;;7.10;84.67
11985;BME280;6052;53.246;10.368;2023-03-29T02:01:28;101215.66;;;7.06;84.70
11985;BME280;6052;53.246;10.368;2023-03-29T02:04:02;101208.00;;;6.96;84.65
11985;BME280;6052;53.246;10.368;2023-03-29T02:06:32;101213.75;;;7.00;84.65
11985;BME280;6052;53.246;10.368;2023-03-29T02:09:05;101205.97;;;6.98;84.71
11985;BME280;6052;53.246;10.368;2023-03-29T02:11:35;101197.53;;;6.95;84.57
11985;BME280;6052;53.246;10.368;2023-03-29T02:14:07;101192.41;;;7.00;85.27
11985;BME280;6052;53.246;10.368;2023-03-29T02:16:39;101192.00;;;6.96;85.04
11985;BME280;6052;53.246;10.368;2023-03-29T02:19:11;101182.16;;;6.97;85.11
11985;BME280;6052;53.246;10.368;2023-03-29T02:21:46;101184.19;;;6.95;85.31
11985;BME280;6052;53.246;10.368;2023-03-29T02:24:20;101178.59;;;6.70;85.65
11985;BME280;6052;53.246;10.368;2023-03-29T02:26:52;101179.84;;;6.87;85.69
11985;BME280;6052;53.246;10.368;2023-03-29T02:29:25;101178.41;;;6.72;86.26
11985;BME280;6052;53.246;10.368;2023-03-29T02:31:58;101175.28;;;6.62;87.45
11985;BME280;6052;53.246;10.368;2023-03-29T02:34:33;101170.16;;;6.67;87.30
11985;BME280;6052;53.246;10.368;2023-03-29T02:37:08;101176.56;;;6.79;87.01
11985;BME280;6052;53.246;10.368;2023-03-29T02:39:41;101172.66;;;6.81;86.50
11985;BME280;6052;53.246;10.368;2023-03-29T02:42:14;101169.19;;;6.81;85.99
11985;BME280;6052;53.246;10.368;2023-03-29T02:44:49;101165.09;;;6.85;86.05
11985;BME280;6052;53.246;10.368;2023-03-29T02:47:24;101156.84;;;6.80;86.58
11985;BME280;6052;53.246;10.368;2023-03-29T02:49:55;101159.31;;;6.75;86.56
11985;BME280;6052;53.246;10.368;2023-03-29T02:52:26;101160.34;;;6.74;86.40
11985;BME280;6052;53.246;10.368;2023-03-29T02:54:59;101159.09;;;6.76;86.56
11985;BME280;6052;53.246;10.368;2023-03-29T02:57:31;101152.34;;;6.74;86.36
11985;BME280;6052;53.246;10.368;2023-03-29T03:00:07;101149.50;;;6.82;86.49
11985;BME280;6052;53.246;10.368;2023-03-29T03:02:42;101145.19;;;6.81;86.47
11985;BME280;6052;53.246;10.368;2023-03-29T03:05:12;101143.09;;;6.70;86.43
11985;BME280;6052;53.246;10.368;2023-03-29T03:07:41;101146.38;;;6.72;86.26
11985;BME280;6052;53.246;10.368;2023-03-29T03:10:11;101144.13;;;6.75;86.79
11985;BME280;6052;53.246;10.368;2023-03-29T03:12:41;101150.69;;;6.73;86.58
11985;BME280;6052;53.246;10.368;2023-03-29T03:15:13;101142.31;;;6.76;86.38
11985;BME280;6052;53.246;10.368;2023-03-29T03:17:43;101142.06;;;6.64;86.80
11985;BME280;6052;53.246;10.368;2023-03-29T03:20:13;101142.25;;;6.63;86.85
11985;BME280;6052;53.246;10.368;2023-03-29T03:22:44;101140.63;;;6.62;86.96
11985;BME280;6052;53.246;10.368;2023-03-29T03:25:15;101135.28;;;6.62;86.77
11985;BME280;6052;53.246;10.368;2023-03-29T03:27:45;101136.28;;;6.61;86.13
11985;BME280;6052;53.246;10.368;2023-03-29T03:30:18;101126.25;;;6.63;86.43
11985;BME280;6052;53.246;10.368;2023-03-29T03:32:48;101133.84;;;6.66;86.08
11985;BME280;6052;53.246;10.368;2023-03-29T03:35:20;101131.16;;;6.59;86.10
11985;BME280;6052;53.246;10.368;2023-03-29T03:37:49;101126.84;;;6.65;85.99
11985;BME280;6052;53.246;10.368;2023-03-29T03:40:19;101122.72;;;6.56;86.01
11985;BME280;6052;53.246;10.368;2023-03-29T03:42:48;101123.78;;;6.61;85.89
11985;BME280;6052;53.246;10.368;2023-03-29T03:45:20;101128.28;;;6.54;86.10
11985;BME280;6052;53.246;10.368;2023-03-29T03:47:50;101122.50;;;6.51;86.63
11985;BME280;6052;53.246;10.368;2023-03-29T03:50:20;101126.63;;;6.53;86.35
11985;BME280;6052;53.246;10.368;2023-03-29T03:52:49;101123.16;;;6.59;86.27
11985;BME280;6052;53.246;10.368;2023-03-29T03:55:19;101111.47;;;6.60;86.33
11985;BME280;6052;53.246;10.368;2023-03-29T03:57:49;101112.50;;;6.59;87.57
11985;BME280;6052;53.246;10.368;2023-03-29T04:00:22;101102.63;;;6.47;87.95
11985;BME280;6052;53.246;10.368;2023-03-29T04:02:52;101104.06;;;6.56;88.17
11985;BME280;6052;53.246;10.368;2023-03-29T04:05:22;101107.75;;;6.55;87.92
11985;BME280;6052;53.246;10.368;2023-03-29T04:07:51;101097.91;;;6.49;88.29
11985;BME280;6052;53.246;10.368;2023-03-29T04:10:21;101097.50;;;6.52;88.72
11985;BME280;6052;53.246;10.368;2023-03-29T04:12:51;101094.22;;;6.56;88.20
11985;BME280;6052;53.246;10.368;2023-03-29T04:15:22;101098.28;;;6.46;89.71
11985;BME280;6052;53.246;10.368;2023-03-29T04:17:52;101098.28;;;6.46;90.58
11985;BME280;6052;53.246;10.368;2023-03-29T04:20:22;101100.28;;;6.31;91.60
11985;BME280;6052;53.246;10.368;2023-03-29T04:22:52;101103.03;;;6.50;91.15
11985;BME280;6052;53.246;10.368;2023-03-29T04:25:22;101102.63;;;6.53;89.92
11985;BME280;6052;53.246;10.368;2023-03-29T04:27:51;101107.13;;;6.46;90.68
11985;BME280;6052;53.246;10.368;2023-03-29T04:30:24;101100.16;;;6.45;90.63
11985;BME280;6052;53.246;10.368;2023-03-29T04:32:53;101106.94;;;6.54;90.11
11985;BME280;6052;53.246;10.368;2023-03-29T04:35:22;101103.22;;;6.49;90.30
11985;BME280;6052;53.246;10.368;2023-03-29T04:37:52;101101.41;;;6.49;89.93
11985;BME280;6052;53.246;10.368;2023-03-29T04:40:22;101102.19;;;6.50;89.81
11985;BME280;6052;53.246;10.368;2023-03-29T04:42:51;101107.72;;;6.48;89.72
11985;BME280;6052;53.246;10.368;2023-03-29T04:45:23;101104.25;;;6.48;89.68
11985;BME280;6052;53.246;10.368;2023-03-29T04:47:55;101099.13;;;6.46;89.42
11985;BME280;6052;53.246;10.368;2023-03-29T04:50:25;101103.06;;;6.57;89.63
11985;BME280;6052;53.246;10.368;2023-03-29T04:52:54;101096.06;;;6.56;89.30
11985;BME280;6052;53.246;10.368;2023-03-29T04:55:25;101091.56;;;6.56;89.03
11985;BME280;6052;53.246;10.368;2023-03-29T04:57:55;101090.94;;;6.48;89.02
11985;BME280;6052;53.246;10.368;2023-03-29T05:00:27;101079.63;;;6.39;91.66
11985;BME280;6052;53.246;10.368;2023-03-29T05:02:56;101080.06;;;6.56;91.95
11985;BME280;6052;53.246;10.368;2023-03-29T05:05:26;101084.94;;;6.46;92.86
11985;BME280;6052;53.246;10.368;2023-03-29T05:07:55;101084.19;;;6.52;92.75
11985;BME280;6052;53.246;10.368;2023-03-29T05:10:25;101082.50;;;6.44;93.55
11985;BME280;6052;53.246;10.368;2023-03-29T05:12:54;101077.41;;;6.62;92.79
11985;BME280;6052;53.246;10.368;2023-03-29T05:15:23;101076.16;;;6.58;93.15
11985;BME280;6052;53.246;10.368;2023-03-29T05:17:56;101086.06;;;6.64;92.68
11985;BME280;6052;53.246;10.368;2023-03-29T05:20:27;101082.94;;;6.61;92.83
11985;BME280;6052;53.246;10.368;2023-03-29T05:22:56;101085.25;;;6.70;92.21
11985;BME280;6052;53.246;10.368;2023-03-29T05:25:26;101089.72;;;6.63;91.96
11985;BME280;6052;53.246;10.368;2023-03-29T05:27:56;101085.00;;;6.59;92.81
11985;BME280;6052;53.246;10.368;2023-03-29T05:30:25;101083.75;;;6.55;93.61
11985;BME280;6052;53.246;10.368;2023-03-29T05:33:00;101082.06;;;6.41;94.47
11985;BME280;6052;53.246;10.368;2023-03-29T05:35:31;101081.06;;;6.42;95.81
11985;BME280;6052;53.246;10.368;2023-03-29T05:38:01;101067.72;;;6.48;96.61
11985;BME280;6052;53.246;10.368;2023-03-29T05:40:31;101076.72;;;6.28;98.31
11985;BME280;6052;53.246;10.368;2023-03-29T05:43:01;101066.00;;;6.15;99.82
11985;BME280;6052;53.246;10.368;2023-03-29T05:45:30;101064.38;;;6.27;100.00
11985;BME280;6052;53.246;10.368;2023-03-29T05:48:03;101051.69;;;6.29;100.00
11985;BME280;6052;53.246;10.368;2023-03-29T05:50:32;101049.63;;;6.18;100.00
11985;BME280;6052;53.246;10.368;2023-03-29T05:53:02;101059.28;;;6.25;100.00
11985;BME280;6052;53.246;10.368;2023-03-29T05:55:32;101052.88;;;6.20;100.00
11985;BME280;6052;53.246;10.368;2023-03-29T05:58:01;101054.13;;;6.17;100.00
11985;BME280;6052;53.246;10.368;2023-03-29T06:00:30;101047.19;;;6.23;100.00
11985;BME280;6052;53.246;10.368;2023-03-29T06:03:06;101045.28;;;6.17;100.00
11985;BME280;6052;53.246;10.368;2023-03-29T06:05:45;101046.72;;;6.19;100.00
11985;BME280;6052;53.246;10.368;2023-03-29T06:08:15;101041.19;;;6.08;100.00
11985;BME280;6052;53.246;10.368;2023-03-29T06:10:44;101050.63;;;6.23;100.00
11985;BME280;6052;53.246;10.368;2023-03-29T06:13:14;101031.59;;;6.26;100.00
11985;BME280;6052;53.246;10.368;2023-03-29T06:15:44;101042.44;;;6.25;100.00
11985;BME280;6052;53.246;10.368;2023-03-29T06:18:16;101038.78;;;6.32;100.00
11985;BME280;6052;53.246;10.368;2023-03-29T06:20:47;101046.53;;;6.21;100.00
11985;BME280;6052;53.246;10.368;2023-03-29T06:23:18;101048.44;;;6.40;100.00
11985;BME280;6052;53.246;10.368;2023-03-29T06:25:51;101060.31;;;6.31;100.00
11985;BME280;6052;53.246;10.368;2023-03-29T06:28:34;101054.00;;;6.45;100.00
11985;BME280;6052;53.246;10.368;2023-03-29T06:31:04;101051.72;;;6.48;100.00
11985;BME280;6052;53.246;10.368;2023-03-29T06:33:38;101051.31;;;6.38;100.00
11985;BME280;6052;53.246;10.368;2023-03-29T06:36:09;101052.75;;;6.34;100.00
11985;BME280;6052;53.246;10.368;2023-03-29T06:38:41;101058.47;;;6.31;100.00
11985;BME280;6052;53.246;10.368;2023-03-29T06:41:11;101055.16;;;6.29;100.00
11985;BME280;6052;53.246;10.368;2023-03-29T06:43:40;101044.31;;;6.31;100.00
11985;BME280;6052;53.246;10.368;2023-03-29T06:46:10;101042.47;;;6.31;100.00
11985;BME280;6052;53.246;10.368;2023-03-29T06:48:42;101041.66;;;6.31;100.00
11985;BME280;6052;53.246;10.368;2023-03-29T06:51:13;101048.22;;;6.35;100.00
11985;BME280;6052;53.246;10.368;2023-03-29T06:53:43;101048.25;;;6.41;100.00
11985;BME280;6052;53.246;10.368;2023-03-29T06:56:12;101045.72;;;6.27;100.00
11985;BME280;6052;53.246;10.368;2023-03-29T06:58:43;101047.84;;;6.38;100.00
11985;BME280;6052;53.246;10.368;2023-03-29T07:01:14;101039.63;;;6.39;100.00
11985;BME280;6052;53.246;10.368;2023-03-29T07:03:46;101049.84;;;6.36;100.00
11985;BME280;6052;53.246;10.368;2023-03-29T07:06:15;101045.56;;;6.35;100.00
11985;BME280;6052;53.246;10.368;2023-03-29T07:08:47;101057.28;;;6.47;100.00
11985;BME280;6052;53.246;10.368;2023-03-29T07:11:18;101058.50;;;6.51;100.00
11985;BME280;6052;53.246;10.368;2023-03-29T07:13:47;101063.47;;;6.60;100.00
11985;BME280;6052;53.246;10.368;2023-03-29T07:16:16;101069.22;;;6.70;100.00
11985;BME280;6052;53.246;10.368;2023-03-29T07:18:48;101064.28;;;6.61;100.00
11985;BME280;6052;53.246;10.368;2023-03-29T07:21:18;101068.78;;;6.54;100.00
11985;BME280;6052;53.246;10.368;2023-03-29T07:23:48;101068.19;;;6.65;100.00
11985;BME280;6052;53.246;10.368;2023-03-29T07:26:18;101070.84;;;6.58;100.00
11985;BME280;6052;53.246;10.368;2023-03-29T07:28:54;101069.59;;;6.48;100.00
11985;BME280;6052;53.246;10.368;2023-03-29T07:31:25;101064.06;;;6.62;100.00
11985;BME280;6052;53.246;10.368;2023-03-29T07:33:58;101057.06;;;6.48;100.00
11985;BME280;6052;53.246;10.368;2023-03-29T07:36:31;101056.47;;;6.46;100.00
11985;BME280;6052;53.246;10.368;2023-03-29T07:39:02;101059.41;;;6.71;100.00
11985;BME280;6052;53.246;10.368;2023-03-29T07:41:32;101051.34;;;6.51;100.00
11985;BME280;6052;53.246;10.368;2023-03-29T07:44:01;101047.28;;;6.62;100.00
11985;BME280;6052;53.246;10.368;2023-03-29T07:46:34;101045.22;;;6.64;100.00
11985;BME280;6052;53.246;10.368;2023-03-29T07:49:06;101045.22;;;6.64;100.00
11985;BME280;6052;53.246;10.368;2023-03-29T07:51:36;101049.72;;;6.70;100.00
11985;BME280;6052;53.246;10.368;2023-03-29T07:54:05;101045.44;;;6.75;100.00
11985;BME280;6052;53.246;10.368;2023-03-29T07:56:35;101044.81;;;6.80;100.00
11985;BME280;6052;53.246;10.368;2023-03-29T07:59:05;101038.03;;;6.77;100.00
11985;BME280;6052;53.246;10.368;2023-03-29T08:01:34;101040.13;;;6.88;100.00
11985;BME280;6052;53.246;10.368;2023-03-29T08:04:04;101035.59;;;6.82;100.00
11985;BME280;6052;53.246;10.368;2023-03-29T08:06:36;101041.75;;;6.89;100.00
11985;BME280;6052;53.246;10.368;2023-03-29T08:09:05;101036.84;;;6.93;100.00
11985;BME280;6052;53.246;10.368;2023-03-29T08:11:35;101033.97;;;6.94;100.00
11985;BME280;6052;53.246;10.368;2023-03-29T08:14:05;101039.72;;;6.98;100.00
11985;BME280;6052;53.246;10.368;2023-03-29T08:16:34;101038.88;;;7.10;100.00
11985;BME280;6052;53.246;10.368;2023-03-29T08:19:04;101037.44;;;7.08;100.00
11985;BME280;6052;53.246;10.368;2023-03-29T08:21:36;101034.78;;;7.08;100.00
11985;BME280;6052;53.246;10.368;2023-03-29T08:24:05;101041.75;;;7.09;100.00
11985;BME280;6052;53.246;10.368;2023-03-29T08:26:35;101036.00;;;7.18;100.00
11985;BME280;6052;53.246;10.368;2023-03-29T08:29:04;101039.50;;;7.19;100.00
11985;BME280;6052;53.246;10.368;2023-03-29T08:31:35;101033.53;;;7.23;100.00
11985;BME280;6052;53.246;10.368;2023-03-29T08:34:04;101038.25;;;7.28;100.00
11985;BME280;6052;53.246;10.368;2023-03-29T08:36:36;101030.44;;;7.26;100.00
11985;BME280;6052;53.246;10.368;2023-03-29T08:39:05;101031.28;;;7.27;100.00
11985;BME280;6052;53.246;10.368;2023-03-29T08:41:43;101039.88;;;7.29;100.00
11985;BME280;6052;53.246;10.368;2023-03-29T08:44:23;101037.84;;;7.37;100.00
11985;BME280;6052;53.246;10.368;2023-03-29T08:47:06;101032.91;;;7.41;100.00
11985;BME280;6052;53.246;10.368;2023-03-29T08:49:40;101033.09;;;7.33;100.00
11985;BME280;6052;53.246;10.368;2023-03-29T08:52:21;101028.59;;;7.40;100.00
11985;BME280;6052;53.246;10.368;2023-03-29T08:54:53;101029.81;;;7.44;100.00
11985;BME280;6052;53.246;10.368;2023-03-29T08:57:28;101031.66;;;7.50;100.00
11985;BME280;6052;53.246;10.368;2023-03-29T09:00:00;101028.56;;;7.53;100.00
11985;BME280;6052;53.246;10.368;2023-03-29T09:02:32;101024.03;;;7.53;100.00
11985;BME280;6052;53.246;10.368;2023-03-29T09:05:07;101023.84;;;7.42;100.00
11985;BME280;6052;53.246;10.368;2023-03-29T09:07:44;101017.25;;;7.57;100.00
11985;BME280;6052;53.246;10.368;2023-03-29T09:10:15;101019.91;;;7.64;100.00
11985;BME280;6052;53.246;10.368;2023-03-29T09:12:58;101018.25;;;7.69;100.00
11985;BME280;6052;53.246;10.368;2023-03-29T09:15:37;101018.22;;;7.76;100.00
11985;BME280;6052;53.246;10.368;2023-03-29T09:18:14;101026.22;;;7.82;100.00
11985;BME280;6052;53.246;10.368;2023-03-29T09:20:52;101014.09;;;7.80;100.00
11985;BME280;6052;53.246;10.368;2023-03-29T09:26:26;101010.16;;;7.89;100.00
11985;BME280;6052;53.246;10.368;2023-03-29T09:29:02;100998.22;;;7.91;100.00
11985;BME280;6052;53.246;10.368;2023-03-29T09:31:37;100998.84;;;7.93;100.00
11985;BME280;6052;53.246;10.368;2023-03-29T09:34:11;100991.63;;;8.00;100.00
11985;BME280;6052;53.246;10.368;2023-03-29T09:36:47;101001.28;;;8.01;100.00
11985;BME280;6052;53.246;10.368;2023-03-29T09:39:21;100987.47;;;8.04;100.00
11985;BME280;6052;53.246;10.368;2023-03-29T09:41:54;100988.28;;;8.05;100.00
11985;BME280;6052;53.246;10.368;2023-03-29T09:44:29;100989.69;;;8.14;100.00
11985;BME280;6052;53.246;10.368;2023-03-29T09:47:05;100982.47;;;8.21;100.00
11985;BME280;6052;53.246;10.368;2023-03-29T09:49:39;100979.81;;;8.14;100.00
11985;BME280;6052;53.246;10.368;2023-03-29T09:52:12;100985.78;;;8.23;100.00
11985;BME280;6052;53.246;10.368;2023-03-29T09:54:45;100980.56;;;8.34;100.00
11985;BME280;6052;53.246;10.368;2023-03-29T09:57:16;100976.69;;;8.30;100.00
11985;BME280;6052;53.246;10.368;2023-03-29T09:59:47;100984.25;;;8.33;100.00
11985;BME280;6052;53.246;10.368;2023-03-29T10:02:19;100969.69;;;8.29;100.00
11985;BME280;6052;53.246;10.368;2023-03-29T10:04:52;100973.97;;;8.37;100.00
11985;BME280;6052;53.246;10.368;2023-03-29T10:07:34;100968.13;;;8.46;100.00
11985;BME280;6052;53.246;10.368;2023-03-29T10:10:09;100959.84;;;8.54;100.00
11985;BME280;6052;53.246;10.368;2023-03-29T10:12:46;100949.94;;;8.55;100.00
11985;BME280;6052;53.246;10.368;2023-03-29T10:15:18;100958.16;;;8.60;100.00
11985;BME280;6052;53.246;10.368;2023-03-29T10:18:00;100953.56;;;8.67;100.00
11985;BME280;6052;53.246;10.368;2023-03-29T10:20:30;100950.03;;;8.73;100.00
11985;BME280;6052;53.246;10.368;2023-03-29T10:23:05;100944.84;;;8.78;100.00
11985;BME280;6052;53.246;10.368;2023-03-29T10:25:38;100949.13;;;8.79;100.00
11985;BME280;6052;53.246;10.368;2023-03-29T10:28:11;100939.47;;;8.78;100.00
11985;BME280;6052;53.246;10.368;2023-03-29T10:30:45;100950.34;;;8.83;100.00
11985;BME280;6052;53.246;10.368;2023-03-29T10:33:22;100944.50;;;8.68;100.00
11985;BME280;6052;53.246;10.368;2023-03-29T10:35:54;100943.53;;;8.87;100.00
11985;BME280;6052;53.246;10.368;2023-03-29T10:38:26;100945.41;;;8.80;100.00
11985;BME280;6052;53.246;10.368;2023-03-29T10:41:05;100937.56;;;8.85;100.00
11985;BME280;6052;53.246;10.368;2023-03-29T10:43:39;100933.41;;;8.89;100.00
11985;BME280;6052;53.246;10.368;2023-03-29T10:46:18;100935.81;;;8.97;100.00
11985;BME280;6052;53.246;10.368;2023-03-29T10:48:49;100939.97;;;8.93;100.00
11985;BME280;6052;53.246;10.368;2023-03-29T10:51:19;100938.91;;;8.94;100.00
11985;BME280;6052;53.246;10.368;2023-03-29T10:53:49;100943.22;;;8.95;100.00
11985;BME280;6052;53.246;10.368;2023-03-29T10:56:39;100950.00;;;8.97;100.00
11985;BME280;6052;53.246;10.368;2023-03-29T10:59:25;100948.72;;;9.00;100.00
11985;BME280;6052;53.246;10.368;2023-03-29T11:02:24;100945.78;;;9.08;100.00
11985;BME280;6052;53.246;10.368;2023-03-29T11:05:24;100948.47;;;9.08;100.00
11985;BME280;6052;53.246;10.368;2023-03-29T11:08:15;100951.56;;;9.05;100.00
11985;BME280;6052;53.246;10.368;2023-03-29T11:10:55;100953.66;;;9.03;100.00
11985;BME280;6052;53.246;10.368;2023-03-29T11:13:35;100945.63;;;9.03;100.00
11985;BME280;6052;53.246;10.368;2023-03-29T11:16:19;100947.88;;;9.06;100.00
11985;BME280;6052;53.246;10.368;2023-03-29T11:19:02;100921.91;;;9.06;100.00
11985;BME280;6052;53.246;10.368;2023-03-29T11:21:40;100919.94;;;9.20;100.00
11985;BME280;6052;53.246;10.368;2023-03-29T11:24:38;100926.53;;;9.17;100.00
11985;BME280;6052;53.246;10.368;2023-03-29T11:27:21;100930.78;;;9.25;100.00
11985;BME280;6052;53.246;10.368;2023-03-29T11:30:12;100930.31;;;9.28;100.00
11985;BME280;6052;53.246;10.368;2023-03-29T11:32:51;100923.63;;;9.37;100.00
11985;BME280;6052;53.246;10.368;2023-03-29T11:35:33;100928.56;;;9.40;100.00
11985;BME280;6052;53.246;10.368;2023-03-29T11:38:15;100926.03;;;9.45;100.00
11985;BME280;6052;53.246;10.368;2023-03-29T11:40:58;100918.56;;;9.47;100.00
11985;BME280;6052;53.246;10.368;2023-03-29T11:43:32;100915.69;;;9.48;100.00
11985;BME280;6052;53.246;10.368;2023-03-29T11:46:12;100909.19;;;9.56;100.00
11985;BME280;6052;53.246;10.368;2023-03-29T11:48:48;100908.63;;;9.54;100.00
11985;BME280;6052;53.246;10.368;2023-03-29T11:51:22;100911.56;;;9.64;100.00
11985;BME280;6052;53.246;10.368;2023-03-29T11:53:59;100916.31;;;9.62;100.00
11985;BME280;6052;53.246;10.368;2023-03-29T11:56:34;100909.63;;;9.71;100.00
11985;BME280;6052;53.246;10.368;2023-03-29T11:59:10;100920.41;;;9.64;100.00
11985;BME280;6052;53.246;10.368;2023-03-29T12:01:47;100915.06;;;9.64;100.00
11985;BME280;6052;53.246;10.368;2023-03-29T12:04:23;100916.03;;;9.70;100.00
11985;BME280;6052;53.246;10.368;2023-03-29T12:07:01;100912.44;;;9.76;100.00
11985;BME280;6052;53.246;10.368;2023-03-29T12:09:36;100914.53;;;9.74;100.00
11985;BME280;6052;53.246;10.368;2023-03-29T12:12:12;100908.72;;;9.77;100.00
11985;BME280;6052;53.246;10.368;2023-03-29T12:14:53;100908.63;;;9.83;100.00
11985;BME280;6052;53.246;10.368;2023-03-29T12:17:30;100904.75;;;9.79;100.00
11985;BME280;6052;53.246;10.368;2023-03-29T12:20:06;100895.00;;;9.85;100.00
11985;BME280;6052;53.246;10.368;2023-03-29T12:22:39;100901.69;;;9.94;100.00
11985;BME280;6052;53.246;10.368;2023-03-29T12:25:14;100895.00;;;9.85;100.00
11985;BME280;6052;53.246;10.368;2023-03-29T12:27:56;100892.00;;;9.93;100.00
11985;BME280;6052;53.246;10.368;2023-03-29T12:30:41;100876.63;;;10.00;100.00
11985;BME280;6052;53.246;10.368;2023-03-29T12:33:31;100877.97;;;10.09;100.00
11985;BME280;6052;53.246;10.368;2023-03-29T12:36:13;100883.63;;;10.01;100.00
11985;BME280;6052;53.246;10.368;2023-03-29T12:38:45;100887.34;;;10.18;100.00
11985;BME280;6052;53.246;10.368;2023-03-29T12:41:17;100894.56;;;10.17;100.00
11985;BME280;6052;53.246;10.368;2023-03-29T12:43:48;100886.53;;;10.29;100.00
11985;BME280;6052;53.246;10.368;2023-03-29T12:46:20;100880.13;;;10.41;100.00
11985;BME280;6052;53.246;10.368;2023-03-29T12:48:56;100893.22;;;10.38;100.00
11985;BME280;6052;53.246;10.368;2023-03-29T12:51:32;100887.38;;;10.41;100.00
11985;BME280;6052;53.246;10.368;2023-03-29T12:54:06;100898.00;;;10.47;100.00
11985;BME280;6052;53.246;10.368;2023-03-29T12:56:39;100885.97;;;10.50;100.00
11985;BME280;6052;53.246;10.368;2023-03-29T12:59:23;100891.13;;;10.63;100.00
11985;BME280;6052;53.246;10.368;2023-03-29T13:01:58;100885.75;;;10.51;100.00
11985;BME280;6052;53.246;10.368;2023-03-29T13:04:49;100877.72;;;10.63;100.00
11985;BME280;6052;53.246;10.368;2023-03-29T13:07:29;100878.50;;;10.63;100.00
11985;BME280;6052;53.246;10.368;2023-03-29T13:10:00;100876.66;;;10.75;100.00
11985;BME280;6052;53.246;10.368;2023-03-29T13:12:35;100880.06;;;10.71;100.00
11985;BME280;6052;53.246;10.368;2023-03-29T13:15:21;100881.56;;;10.90;100.00
11985;BME280;6052;53.246;10.368;2023-03-29T13:17:57;100890.91;;;10.87;100.00
11985;BME280;6052;53.246;10.368;2023-03-29T13:20:44;100883.91;;;10.86;100.00
11985;BME280;6052;53.246;10.368;2023-03-29T13:23:25;100878.66;;;10.68;100.00
11985;BME280;6052;53.246;10.368;2023-03-29T13:26:12;100878.41;;;10.81;100.00
11985;BME280;6052;53.246;10.368;2023-03-29T13:28:57;100874.22;;;10.85;100.00